SHT22A EGLL-EGJB
Flight info
| Callsign | SHT22A |
|---|---|
| Flight time | 0h 35m |
| Altitude | 23000 |
| Route | GASGU N514 EVTES N621 SAM/N0388F220 N63 LELNA |
| Aircraft | A319/M-SDE3FGIJ1KRWXY/LB1 |
Departure
| Time | 2026-05-05 09:54 |
|---|---|
| Airport | London Heathrow Airport (EGLL) |
Arrival
| Time | 2026-05-05 10:30 |
|---|---|
| Airport | Guernsey Airport (EGJB) |
| Time | Latitude | Longitude | Altitude | Speed | Heading |
|---|---|---|---|---|---|
| 2026-05-05 09:28 | 51.47394 | -0.48757 | 86 ft | 0 kts | 179° |
| 2026-05-05 09:45 | 51.47402 | -0.48757 | 89 ft | 4 kts | 179° |
| 2026-05-05 09:45 | 51.47429 | -0.48757 | 86 ft | 4 kts | 179° |
| 2026-05-05 09:46 | 51.47452 | -0.48758 | 86 ft | 2 kts | 180° |
| 2026-05-05 09:46 | 51.47476 | -0.48763 | 88 ft | 4 kts | 143° |
| 2026-05-05 09:46 | 51.47486 | -0.48793 | 87 ft | 3 kts | 90° |
| 2026-05-05 09:46 | 51.47486 | -0.48819 | 87 ft | 0 kts | 90° |
| 2026-05-05 09:50 | 51.47486 | -0.48813 | 88 ft | 4 kts | 90° |
| 2026-05-05 09:50 | 51.47487 | -0.48709 | 86 ft | 13 kts | 88° |
| 2026-05-05 09:50 | 51.47488 | -0.48539 | 86 ft | 15 kts | 95° |
| 2026-05-05 09:51 | 51.47393 | -0.48473 | 86 ft | 19 kts | 180° |
| 2026-05-05 09:51 | 51.47284 | -0.48472 | 86 ft | 14 kts | 180° |
| 2026-05-05 09:51 | 51.47171 | -0.48476 | 86 ft | 19 kts | 180° |
| 2026-05-05 09:51 | 51.47026 | -0.48473 | 86 ft | 20 kts | 179° |
| 2026-05-05 09:52 | 51.46922 | -0.48470 | 86 ft | 11 kts | 179° |
| 2026-05-05 09:52 | 51.46902 | -0.48470 | 86 ft | 4 kts | 180° |
| 2026-05-05 09:52 | 51.46858 | -0.48470 | 86 ft | 8 kts | 179° |
| 2026-05-05 09:52 | 51.46784 | -0.48468 | 86 ft | 13 kts | 179° |
| 2026-05-05 09:53 | 51.46676 | -0.48467 | 86 ft | 18 kts | 179° |
| 2026-05-05 09:53 | 51.46538 | -0.48466 | 87 ft | 17 kts | 181° |
| 2026-05-05 09:53 | 51.46497 | -0.48467 | 87 ft | 7 kts | 181° |
| 2026-05-05 09:53 | 51.46479 | -0.48406 | 87 ft | 8 kts | 86° |
| 2026-05-05 09:54 | 51.46483 | -0.48121 | 88 ft | 56 kts | 89° |
| 2026-05-05 09:54 | 51.46486 | -0.47128 | 87 ft | 120 kts | 89° |
| 2026-05-05 09:54 | 51.46490 | -0.45560 | 221 ft | 158 kts | 89° |
| 2026-05-05 09:54 | 51.46491 | -0.43831 | 1003 ft | 155 kts | 86° |
| 2026-05-05 09:55 | 51.46489 | -0.42062 | 1673 ft | 168 kts | 92° |
| 2026-05-05 09:55 | 51.45947 | -0.40213 | 2066 ft | 201 kts | 121° |
| 2026-05-05 09:55 | 51.45095 | -0.38255 | 2646 ft | 226 kts | 121° |
| 2026-05-05 09:55 | 51.44135 | -0.36083 | 3322 ft | 252 kts | 122° |
| 2026-05-05 09:56 | 51.42890 | -0.33995 | 4284 ft | 267 kts | 143° |
| 2026-05-05 09:56 | 51.41150 | -0.32874 | 5459 ft | 275 kts | 168° |
| 2026-05-05 09:56 | 51.39226 | -0.33038 | 6610 ft | 281 kts | 195° |
| 2026-05-05 09:56 | 51.37508 | -0.34525 | 7645 ft | 285 kts | 220° |
| 2026-05-05 09:57 | 51.36028 | -0.36673 | 8714 ft | 288 kts | 223° |
| 2026-05-05 09:57 | 51.34541 | -0.38854 | 9753 ft | 292 kts | 223° |
| 2026-05-05 09:57 | 51.32984 | -0.41044 | 10418 ft | 309 kts | 219° |
| 2026-05-05 09:57 | 51.31363 | -0.43489 | 10793 ft | 332 kts | 233° |
| 2026-05-05 09:58 | 51.30214 | -0.46689 | 11446 ft | 341 kts | 248° |
| 2026-05-05 09:58 | 51.29442 | -0.50296 | 12285 ft | 346 kts | 254° |
| 2026-05-05 09:58 | 51.28757 | -0.54008 | 13143 ft | 350 kts | 255° |
| 2026-05-05 09:58 | 51.27890 | -0.57660 | 13913 ft | 357 kts | 240° |
| 2026-05-05 09:59 | 51.26307 | -0.60730 | 14614 ft | 362 kts | 220° |
| 2026-05-05 09:59 | 51.24313 | -0.63187 | 15401 ft | 363 kts | 216° |
| 2026-05-05 09:59 | 51.22289 | -0.65614 | 16209 ft | 365 kts | 216° |
| 2026-05-05 09:59 | 51.20252 | -0.68053 | 17004 ft | 367 kts | 216° |
| 2026-05-05 10:00 | 51.18205 | -0.70510 | 17782 ft | 370 kts | 216° |
| 2026-05-05 10:00 | 51.16145 | -0.72987 | 18532 ft | 372 kts | 216° |
| 2026-05-05 10:00 | 51.14069 | -0.75487 | 19202 ft | 375 kts | 216° |
| 2026-05-05 10:00 | 51.11988 | -0.77999 | 19911 ft | 377 kts | 216° |
| 2026-05-05 10:01 | 51.09893 | -0.80524 | 20612 ft | 379 kts | 216° |
| 2026-05-05 10:01 | 51.07782 | -0.83062 | 21275 ft | 382 kts | 216° |
| 2026-05-05 10:01 | 51.05653 | -0.85616 | 21954 ft | 385 kts | 216° |
| 2026-05-05 10:01 | 51.03510 | -0.88184 | 22614 ft | 387 kts | 216° |
| 2026-05-05 10:02 | 51.01381 | -0.90736 | 22918 ft | 389 kts | 216° |
| 2026-05-05 10:02 | 50.99231 | -0.93312 | 22981 ft | 384 kts | 216° |
| 2026-05-05 10:02 | 50.97112 | -0.95846 | 22990 ft | 380 kts | 215° |
| 2026-05-05 10:02 | 50.95001 | -0.98359 | 22987 ft | 379 kts | 216° |
| 2026-05-05 10:03 | 50.92884 | -1.00870 | 22990 ft | 380 kts | 215° |
| 2026-05-05 10:03 | 50.90771 | -1.03373 | 22991 ft | 379 kts | 215° |
| 2026-05-05 10:03 | 50.88666 | -1.05865 | 22991 ft | 378 kts | 215° |
| 2026-05-05 10:03 | 50.86558 | -1.08367 | 22992 ft | 379 kts | 216° |
| 2026-05-05 10:04 | 50.84446 | -1.10871 | 22993 ft | 380 kts | 216° |
| 2026-05-05 10:04 | 50.82334 | -1.13373 | 22992 ft | 378 kts | 216° |
| 2026-05-05 10:04 | 50.80226 | -1.15866 | 22986 ft | 378 kts | 216° |
| 2026-05-05 10:04 | 50.78118 | -1.18356 | 22981 ft | 379 kts | 216° |
| 2026-05-05 10:05 | 50.76007 | -1.20847 | 22980 ft | 379 kts | 216° |
| 2026-05-05 10:05 | 50.73898 | -1.23335 | 22980 ft | 379 kts | 216° |
| 2026-05-05 10:05 | 50.71784 | -1.25827 | 22978 ft | 379 kts | 216° |
| 2026-05-05 10:05 | 50.69668 | -1.28320 | 22978 ft | 379 kts | 215° |
| 2026-05-05 10:06 | 50.67556 | -1.30807 | 22981 ft | 379 kts | 216° |
| 2026-05-05 10:06 | 50.65444 | -1.33291 | 22978 ft | 379 kts | 216° |
| 2026-05-05 10:06 | 50.63323 | -1.35780 | 22975 ft | 379 kts | 215° |
| 2026-05-05 10:06 | 50.61203 | -1.38259 | 22957 ft | 380 kts | 214° |
| 2026-05-05 10:07 | 50.59106 | -1.40706 | 22962 ft | 380 kts | 215° |
| 2026-05-05 10:07 | 50.56976 | -1.43186 | 22964 ft | 381 kts | 215° |
| 2026-05-05 10:07 | 50.54847 | -1.45663 | 22964 ft | 381 kts | 215° |
| 2026-05-05 10:07 | 50.52716 | -1.48142 | 22959 ft | 381 kts | 215° |
| 2026-05-05 10:08 | 50.50586 | -1.50620 | 22963 ft | 381 kts | 216° |
| 2026-05-05 10:08 | 50.48461 | -1.53096 | 22736 ft | 379 kts | 215° |
| 2026-05-05 10:08 | 50.46348 | -1.55554 | 22460 ft | 376 kts | 215° |
| 2026-05-05 10:08 | 50.44247 | -1.57994 | 22190 ft | 376 kts | 215° |
| 2026-05-05 10:09 | 50.42146 | -1.60431 | 21925 ft | 375 kts | 215° |
| 2026-05-05 10:09 | 50.40054 | -1.62852 | 21668 ft | 374 kts | 214° |
| 2026-05-05 10:09 | 50.37952 | -1.65272 | 21406 ft | 375 kts | 214° |
| 2026-05-05 10:09 | 50.35855 | -1.67688 | 21147 ft | 375 kts | 214° |
| 2026-05-05 10:10 | 50.33755 | -1.70106 | 20893 ft | 374 kts | 214° |
| 2026-05-05 10:10 | 50.31659 | -1.72520 | 20638 ft | 373 kts | 214° |
| 2026-05-05 10:10 | 50.29570 | -1.74927 | 20384 ft | 373 kts | 215° |
| 2026-05-05 10:10 | 50.27484 | -1.77326 | 20134 ft | 372 kts | 214° |
| 2026-05-05 10:11 | 50.25403 | -1.79715 | 19969 ft | 371 kts | 214° |
| 2026-05-05 10:11 | 50.23311 | -1.82110 | 19977 ft | 372 kts | 214° |
| 2026-05-05 10:11 | 50.21247 | -1.84469 | 19985 ft | 371 kts | 214° |
| 2026-05-05 10:11 | 50.19166 | -1.86846 | 19984 ft | 369 kts | 214° |
| 2026-05-05 10:12 | 50.17100 | -1.89209 | 19983 ft | 369 kts | 214° |
| 2026-05-05 10:12 | 50.15022 | -1.91583 | 19982 ft | 371 kts | 214° |
| 2026-05-05 10:12 | 50.12938 | -1.93961 | 19974 ft | 371 kts | 214° |
| 2026-05-05 10:12 | 50.10849 | -1.96345 | 19980 ft | 372 kts | 214° |
| 2026-05-05 10:13 | 50.08761 | -1.98722 | 19980 ft | 372 kts | 214° |
| 2026-05-05 10:13 | 50.06673 | -2.01095 | 19983 ft | 371 kts | 214° |
| 2026-05-05 10:13 | 50.04583 | -2.03464 | 19983 ft | 372 kts | 214° |
| 2026-05-05 10:13 | 50.02491 | -2.05832 | 19980 ft | 372 kts | 214° |
| 2026-05-05 10:14 | 50.00400 | -2.08199 | 19980 ft | 372 kts | 214° |
| 2026-05-05 10:14 | 49.98353 | -2.10652 | 19979 ft | 373 kts | 220° |
| 2026-05-05 10:14 | 49.96563 | -2.13520 | 19544 ft | 377 kts | 226° |
| 2026-05-05 10:14 | 49.94816 | -2.16560 | 18992 ft | 376 kts | 227° |
| 2026-05-05 10:15 | 49.93095 | -2.19592 | 18495 ft | 373 kts | 227° |
| 2026-05-05 10:15 | 49.91395 | -2.22602 | 17958 ft | 369 kts | 227° |
| 2026-05-05 10:15 | 49.89710 | -2.25577 | 17455 ft | 364 kts | 227° |
| 2026-05-05 10:15 | 49.88040 | -2.28499 | 16972 ft | 360 kts | 228° |
| 2026-05-05 10:16 | 49.86377 | -2.31393 | 16490 ft | 358 kts | 228° |
| 2026-05-05 10:16 | 49.84721 | -2.34263 | 16011 ft | 356 kts | 228° |
| 2026-05-05 10:16 | 49.83073 | -2.37115 | 15539 ft | 354 kts | 228° |
| 2026-05-05 10:16 | 49.81439 | -2.39945 | 15070 ft | 351 kts | 229° |
| 2026-05-05 10:17 | 49.79817 | -2.42759 | 14600 ft | 350 kts | 229° |
| 2026-05-05 10:17 | 49.78198 | -2.45573 | 14134 ft | 349 kts | 229° |
| 2026-05-05 10:17 | 49.76589 | -2.48366 | 13657 ft | 346 kts | 229° |
| 2026-05-05 10:17 | 49.74987 | -2.51123 | 13152 ft | 344 kts | 229° |
| 2026-05-05 10:18 | 49.73378 | -2.53847 | 12651 ft | 342 kts | 229° |
| 2026-05-05 10:18 | 49.71772 | -2.56553 | 12165 ft | 341 kts | 229° |
| 2026-05-05 10:18 | 49.70181 | -2.59254 | 11684 ft | 338 kts | 228° |
| 2026-05-05 10:18 | 49.68596 | -2.61916 | 11190 ft | 336 kts | 225° |
| 2026-05-05 10:19 | 49.66931 | -2.64378 | 10729 ft | 335 kts | 224° |
| 2026-05-05 10:19 | 49.65236 | -2.66837 | 10262 ft | 333 kts | 223° |
| 2026-05-05 10:19 | 49.63557 | -2.69278 | 9795 ft | 330 kts | 223° |
| 2026-05-05 10:19 | 49.61894 | -2.71703 | 9284 ft | 327 kts | 223° |
| 2026-05-05 10:20 | 49.60247 | -2.74114 | 8796 ft | 325 kts | 223° |
| 2026-05-05 10:20 | 49.58640 | -2.76460 | 8652 ft | 311 kts | 223° |
| 2026-05-05 10:20 | 49.57094 | -2.78713 | 8512 ft | 299 kts | 223° |
| 2026-05-05 10:20 | 49.55597 | -2.80890 | 8220 ft | 294 kts | 223° |
| 2026-05-05 10:21 | 49.54109 | -2.83053 | 7850 ft | 293 kts | 223° |
| 2026-05-05 10:21 | 49.52629 | -2.85201 | 7465 ft | 292 kts | 223° |
| 2026-05-05 10:21 | 49.51155 | -2.87336 | 6995 ft | 288 kts | 223° |
| 2026-05-05 10:21 | 49.49842 | -2.89594 | 6540 ft | 286 kts | 234° |
| 2026-05-05 10:22 | 49.48936 | -2.92306 | 6143 ft | 281 kts | 256° |
| 2026-05-05 10:22 | 49.48534 | -2.95196 | 5667 ft | 281 kts | 264° |
| 2026-05-05 10:22 | 49.48277 | -2.98153 | 5365 ft | 272 kts | 262° |
| 2026-05-05 10:22 | 49.47556 | -3.00731 | 5240 ft | 259 kts | 230° |
| 2026-05-05 10:23 | 49.46167 | -3.02357 | 5100 ft | 248 kts | 198° |
| 2026-05-05 10:23 | 49.44514 | -3.02564 | 4960 ft | 234 kts | 162° |
| 2026-05-05 10:23 | 49.43167 | -3.01404 | 4831 ft | 216 kts | 129° |
| 2026-05-05 10:23 | 49.42463 | -2.99498 | 4692 ft | 200 kts | 100° |
| 2026-05-05 10:24 | 49.42398 | -2.97450 | 4533 ft | 187 kts | 83° |
| 2026-05-05 10:24 | 49.42458 | -2.95512 | 4377 ft | 177 kts | 84° |
| 2026-05-05 10:24 | 49.42515 | -2.93663 | 4098 ft | 175 kts | 83° |
| 2026-05-05 10:24 | 49.42572 | -2.91802 | 3820 ft | 174 kts | 83° |
| 2026-05-05 10:25 | 49.42629 | -2.89943 | 3536 ft | 173 kts | 83° |
| 2026-05-05 10:25 | 49.42685 | -2.88095 | 3299 ft | 172 kts | 83° |
| 2026-05-05 10:25 | 49.42740 | -2.86266 | 3104 ft | 170 kts | 83° |
| 2026-05-05 10:25 | 49.42795 | -2.84457 | 3018 ft | 169 kts | 83° |
| 2026-05-05 10:26 | 49.42850 | -2.82661 | 2975 ft | 169 kts | 83° |
| 2026-05-05 10:26 | 49.42903 | -2.80855 | 2819 ft | 168 kts | 83° |
| 2026-05-05 10:26 | 49.42952 | -2.79149 | 2623 ft | 157 kts | 83° |
| 2026-05-05 10:26 | 49.42999 | -2.77528 | 2415 ft | 147 kts | 83° |
| 2026-05-05 10:27 | 49.43043 | -2.76000 | 2224 ft | 140 kts | 83° |
| 2026-05-05 10:27 | 49.43086 | -2.74540 | 2039 ft | 134 kts | 83° |
| 2026-05-05 10:27 | 49.43125 | -2.73161 | 1875 ft | 124 kts | 83° |
| 2026-05-05 10:27 | 49.43162 | -2.71873 | 1707 ft | 119 kts | 83° |
| 2026-05-05 10:28 | 49.43199 | -2.70614 | 1543 ft | 117 kts | 84° |
| 2026-05-05 10:28 | 49.43236 | -2.69360 | 1377 ft | 117 kts | 83° |
| 2026-05-05 10:28 | 49.43271 | -2.68119 | 1213 ft | 116 kts | 84° |
| 2026-05-05 10:28 | 49.43307 | -2.66875 | 1054 ft | 117 kts | 82° |
| 2026-05-05 10:29 | 49.43341 | -2.65630 | 926 ft | 116 kts | 82° |
| 2026-05-05 10:29 | 49.43369 | -2.64385 | 751 ft | 117 kts | 83° |
| 2026-05-05 10:29 | 49.43410 | -2.63142 | 596 ft | 116 kts | 81° |
| 2026-05-05 10:29 | 49.43448 | -2.61906 | 415 ft | 116 kts | 83° |
| 2026-05-05 10:30 | 49.43492 | -2.60682 | 311 ft | 105 kts | 86° |
| 2026-05-05 10:30 | 49.43508 | -2.59910 | 322 ft | 30 kts | 88° |
| 2026-05-05 10:30 | 49.43505 | -2.59842 | 324 ft | 3 kts | 128° |
| 2026-05-05 10:30 | 49.43472 | -2.59859 | 323 ft | 8 kts | 194° |
| 2026-05-05 10:31 | 49.43416 | -2.59861 | 325 ft | 8 kts | 180° |
| 2026-05-05 10:31 | 49.43357 | -2.59846 | 323 ft | 9 kts | 144° |
| 2026-05-05 10:31 | 49.43346 | -2.59793 | 328 ft | 2 kts | 88° |
| 2026-05-05 10:31 | 49.43350 | -2.59763 | 328 ft | 5 kts | 77° |
| 2026-05-05 10:32 | 49.43358 | -2.59697 | 329 ft | 7 kts | 84° |
| 2026-05-05 10:32 | 49.43360 | -2.59658 | 329 ft | 0 kts | 84° |
| 2026-05-05 10:32 | 49.43360 | -2.59656 | 329 ft | 1 kts | 85° |
| 2026-05-05 10:32 | 49.43354 | -2.59628 | 328 ft | 4 kts | 135° |
| 2026-05-05 10:33 | 49.43318 | -2.59623 | 330 ft | 6 kts | 178° |
| 2026-05-05 10:33 | 49.43281 | -2.59622 | 329 ft | 1 kts | 179° |
| 2026-05-05 10:33 | 49.43264 | -2.59621 | 329 ft | 1 kts | 178° |
| 2026-05-05 10:33 | 49.43255 | -2.59620 | 328 ft | 1 kts | 178° |
| 2026-05-05 10:34 | 49.43252 | -2.59620 | 328 ft | 0 kts | 178° |